sensor_id;sensor_type;location;lat;lon;timestamp;P1;durP1;ratioP1;P2;durP2;ratioP2
37937;SDS011;23763;48.130;11.602;2024-03-07T00:00:21;11.48;;;10.55;;
37937;SDS011;23763;48.130;11.602;2024-03-07T00:02:48;11.80;;;10.77;;
37937;SDS011;23763;48.130;11.602;2024-03-07T00:05:18;11.82;;;10.73;;
37937;SDS011;23763;48.130;11.602;2024-03-07T00:07:45;12.27;;;11.30;;
37937;SDS011;23763;48.130;11.602;2024-03-07T00:10:14;12.88;;;11.77;;
37937;SDS011;23763;48.130;11.602;2024-03-07T00:12:40;13.20;;;11.82;;
37937;SDS011;23763;48.130;11.602;2024-03-07T00:15:06;12.02;;;10.98;;
37937;SDS011;23763;48.130;11.602;2024-03-07T00:17:34;12.83;;;11.73;;
37937;SDS011;23763;48.130;11.602;2024-03-07T00:20:00;12.43;;;11.23;;
37937;SDS011;23763;48.130;11.602;2024-03-07T00:22:26;13.45;;;12.15;;
37937;SDS011;23763;48.130;11.602;2024-03-07T00:24:55;14.05;;;12.63;;
37937;SDS011;23763;48.130;11.602;2024-03-07T00:27:21;14.88;;;13.38;;
37937;SDS011;23763;48.130;11.602;2024-03-07T00:29:48;13.53;;;12.23;;
37937;SDS011;23763;48.130;11.602;2024-03-07T00:32:21;14.83;;;13.40;;
37937;SDS011;23763;48.130;11.602;2024-03-07T00:34:47;15.17;;;13.70;;
37937;SDS011;23763;48.130;11.602;2024-03-07T00:37:13;15.27;;;13.67;;
37937;SDS011;23763;48.130;11.602;2024-03-07T00:39:39;14.60;;;13.30;;
37937;SDS011;23763;48.130;11.602;2024-03-07T00:42:05;15.03;;;13.57;;
37937;SDS011;23763;48.130;11.602;2024-03-07T00:44:31;14.32;;;12.98;;
37937;SDS011;23763;48.130;11.602;2024-03-07T00:46:57;15.37;;;13.77;;
37937;SDS011;23763;48.130;11.602;2024-03-07T00:49:23;14.15;;;12.77;;
37937;SDS011;23763;48.130;11.602;2024-03-07T00:51:48;15.83;;;14.23;;
37937;SDS011;23763;48.130;11.602;2024-03-07T00:54:14;14.67;;;13.27;;
37937;SDS011;23763;48.130;11.602;2024-03-07T00:56:41;15.83;;;14.33;;
37937;SDS011;23763;48.130;11.602;2024-03-07T00:59:06;15.70;;;14.00;;
37937;SDS011;23763;48.130;11.602;2024-03-07T01:01:32;16.13;;;14.32;;
37937;SDS011;23763;48.130;11.602;2024-03-07T01:04:02;15.32;;;13.85;;
37937;SDS011;23763;48.130;11.602;2024-03-07T01:06:27;16.23;;;14.33;;
37937;SDS011;23763;48.130;11.602;2024-03-07T01:08:53;16.10;;;14.50;;
37937;SDS011;23763;48.130;11.602;2024-03-07T01:11:19;16.70;;;15.00;;
37937;SDS011;23763;48.130;11.602;2024-03-07T01:13:45;17.00;;;14.75;;
37937;SDS011;23763;48.130;11.602;2024-03-07T01:16:10;15.73;;;14.13;;
37937;SDS011;23763;48.130;11.602;2024-03-07T01:18:37;16.43;;;14.73;;
37937;SDS011;23763;48.130;11.602;2024-03-07T01:21:03;16.83;;;14.47;;
37937;SDS011;23763;48.130;11.602;2024-03-07T01:23:30;19.65;;;15.50;;
37937;SDS011;23763;48.130;11.602;2024-03-07T01:26:00;19.65;;;15.43;;
37937;SDS011;23763;48.130;11.602;2024-03-07T01:28:26;18.83;;;15.40;;
37937;SDS011;23763;48.130;11.602;2024-03-07T01:30:55;18.50;;;16.10;;
37937;SDS011;23763;48.130;11.602;2024-03-07T01:33:22;18.97;;;15.70;;
37937;SDS011;23763;48.130;11.602;2024-03-07T01:35:48;18.15;;;15.25;;
37937;SDS011;23763;48.130;11.602;2024-03-07T01:38:14;17.80;;;15.95;;
37937;SDS011;23763;48.130;11.602;2024-03-07T01:40:41;18.73;;;16.50;;
37937;SDS011;23763;48.130;11.602;2024-03-07T01:43:08;17.77;;;15.73;;
37937;SDS011;23763;48.130;11.602;2024-03-07T01:45:35;18.05;;;16.15;;
37937;SDS011;23763;48.130;11.602;2024-03-07T01:48:02;18.92;;;15.90;;
37937;SDS011;23763;48.130;11.602;2024-03-07T01:50:29;18.60;;;16.48;;
37937;SDS011;23763;48.130;11.602;2024-03-07T01:52:55;19.23;;;16.90;;
37937;SDS011;23763;48.130;11.602;2024-03-07T01:55:21;19.37;;;16.13;;
37937;SDS011;23763;48.130;11.602;2024-03-07T01:57:50;22.77;;;16.98;;
37937;SDS011;23763;48.130;11.602;2024-03-07T02:00:17;19.70;;;16.33;;
37937;SDS011;23763;48.130;11.602;2024-03-07T02:02:43;20.83;;;16.95;;
37937;SDS011;23763;48.130;11.602;2024-03-07T02:05:10;19.65;;;17.30;;
37937;SDS011;23763;48.130;11.602;2024-03-07T02:07:36;20.10;;;17.52;;
37937;SDS011;23763;48.130;11.602;2024-03-07T02:10:03;19.98;;;16.92;;
37937;SDS011;23763;48.130;11.602;2024-03-07T02:12:30;19.02;;;17.02;;
37937;SDS011;23763;48.130;11.602;2024-03-07T02:14:57;18.92;;;16.45;;
37937;SDS011;23763;48.130;11.602;2024-03-07T02:17:23;23.33;;;18.65;;
37937;SDS011;23763;48.130;11.602;2024-03-07T02:19:50;19.27;;;17.20;;
37937;SDS011;23763;48.130;11.602;2024-03-07T02:22:16;19.20;;;17.10;;
37937;SDS011;23763;48.130;11.602;2024-03-07T02:24:42;20.90;;;17.87;;
37937;SDS011;23763;48.130;11.602;2024-03-07T02:27:07;23.10;;;18.38;;
37937;SDS011;23763;48.130;11.602;2024-03-07T02:29:34;24.90;;;20.05;;
37937;SDS011;23763;48.130;11.602;2024-03-07T02:32:01;24.23;;;19.35;;
37937;SDS011;23763;48.130;11.602;2024-03-07T02:34:27;26.30;;;21.83;;
37937;SDS011;23763;48.130;11.602;2024-03-07T02:36:53;27.02;;;21.17;;
37937;SDS011;23763;48.130;11.602;2024-03-07T02:39:22;27.67;;;21.85;;
37937;SDS011;23763;48.130;11.602;2024-03-07T02:41:49;28.08;;;22.60;;
37937;SDS011;23763;48.130;11.602;2024-03-07T02:44:15;30.10;;;22.70;;
37937;SDS011;23763;48.130;11.602;2024-03-07T02:46:41;26.27;;;21.80;;
37937;SDS011;23763;48.130;11.602;2024-03-07T02:49:07;25.90;;;21.77;;
37937;SDS011;23763;48.130;11.602;2024-03-07T02:51:33;28.30;;;22.25;;
37937;SDS011;23763;48.130;11.602;2024-03-07T02:53:59;33.35;;;22.48;;
37937;SDS011;23763;48.130;11.602;2024-03-07T02:56:24;27.70;;;22.27;;
37937;SDS011;23763;48.130;11.602;2024-03-07T02:58:53;29.43;;;22.63;;
37937;SDS011;23763;48.130;11.602;2024-03-07T03:01:19;28.70;;;22.63;;
37937;SDS011;23763;48.130;11.602;2024-03-07T03:03:45;27.30;;;22.97;;
37937;SDS011;23763;48.130;11.602;2024-03-07T03:06:10;31.42;;;23.00;;
37937;SDS011;23763;48.130;11.602;2024-03-07T03:08:36;30.90;;;23.10;;
37937;SDS011;23763;48.130;11.602;2024-03-07T03:11:02;33.85;;;22.75;;
37937;SDS011;23763;48.130;11.602;2024-03-07T03:13:28;29.35;;;23.23;;
37937;SDS011;23763;48.130;11.602;2024-03-07T03:15:54;31.40;;;23.75;;
37937;SDS011;23763;48.130;11.602;2024-03-07T03:18:23;31.55;;;24.00;;
37937;SDS011;23763;48.130;11.602;2024-03-07T03:20:49;33.42;;;24.98;;
37937;SDS011;23763;48.130;11.602;2024-03-07T03:23:15;32.83;;;23.45;;
37937;SDS011;23763;48.130;11.602;2024-03-07T03:25:41;30.00;;;24.38;;
37937;SDS011;23763;48.130;11.602;2024-03-07T03:28:08;32.05;;;23.35;;
37937;SDS011;23763;48.130;11.602;2024-03-07T03:30:37;32.88;;;23.38;;
37937;SDS011;23763;48.130;11.602;2024-03-07T03:33:03;30.67;;;24.60;;
37937;SDS011;23763;48.130;11.602;2024-03-07T03:35:30;30.05;;;23.52;;
37937;SDS011;23763;48.130;11.602;2024-03-07T03:37:56;30.30;;;23.55;;
37937;SDS011;23763;48.130;11.602;2024-03-07T03:40:22;29.73;;;24.45;;
37937;SDS011;23763;48.130;11.602;2024-03-07T03:42:48;35.05;;;25.52;;
37937;SDS011;23763;48.130;11.602;2024-03-07T03:45:14;32.58;;;25.20;;
37937;SDS011;23763;48.130;11.602;2024-03-07T03:47:41;32.67;;;25.95;;
37937;SDS011;23763;48.130;11.602;2024-03-07T03:50:08;35.42;;;24.67;;
37937;SDS011;23763;48.130;11.602;2024-03-07T03:52:35;31.13;;;25.30;;
37937;SDS011;23763;48.130;11.602;2024-03-07T03:55:01;34.08;;;26.75;;
37937;SDS011;23763;48.130;11.602;2024-03-07T03:57:27;35.53;;;25.27;;
37937;SDS011;23763;48.130;11.602;2024-03-07T03:59:54;34.93;;;25.43;;
37937;SDS011;23763;48.130;11.602;2024-03-07T04:02:21;35.47;;;27.10;;
37937;SDS011;23763;48.130;11.602;2024-03-07T04:04:47;36.95;;;27.15;;
37937;SDS011;23763;48.130;11.602;2024-03-07T04:07:14;31.38;;;24.98;;
37937;SDS011;23763;48.130;11.602;2024-03-07T04:09:41;36.92;;;25.85;;
37937;SDS011;23763;48.130;11.602;2024-03-07T04:12:07;36.67;;;26.38;;
37937;SDS011;23763;48.130;11.602;2024-03-07T04:14:36;34.72;;;26.33;;
37937;SDS011;23763;48.130;11.602;2024-03-07T04:17:04;34.58;;;26.55;;
37937;SDS011;23763;48.130;11.602;2024-03-07T04:19:32;38.17;;;27.20;;
37937;SDS011;23763;48.130;11.602;2024-03-07T04:21:58;38.10;;;26.50;;
37937;SDS011;23763;48.130;11.602;2024-03-07T04:24:27;39.45;;;26.92;;
37937;SDS011;23763;48.130;11.602;2024-03-07T04:26:54;33.47;;;26.48;;
37937;SDS011;23763;48.130;11.602;2024-03-07T04:29:20;36.63;;;26.73;;
37937;SDS011;23763;48.130;11.602;2024-03-07T04:31:45;35.80;;;27.02;;
37937;SDS011;23763;48.130;11.602;2024-03-07T04:34:11;34.95;;;26.80;;
37937;SDS011;23763;48.130;11.602;2024-03-07T04:36:36;36.47;;;26.85;;
37937;SDS011;23763;48.130;11.602;2024-03-07T04:39:03;35.80;;;27.42;;
37937;SDS011;23763;48.130;11.602;2024-03-07T04:41:29;33.47;;;26.52;;
37937;SDS011;23763;48.130;11.602;2024-03-07T04:43:55;39.75;;;27.67;;
37937;SDS011;23763;48.130;11.602;2024-03-07T04:46:21;38.53;;;29.20;;
37937;SDS011;23763;48.130;11.602;2024-03-07T04:48:46;38.65;;;29.27;;
37937;SDS011;23763;48.130;11.602;2024-03-07T04:51:12;43.60;;;29.38;;
37937;SDS011;23763;48.130;11.602;2024-03-07T04:53:39;37.35;;;27.73;;
37937;SDS011;23763;48.130;11.602;2024-03-07T04:56:07;38.58;;;27.95;;
37937;SDS011;23763;48.130;11.602;2024-03-07T04:58:34;36.15;;;26.83;;
37937;SDS011;23763;48.130;11.602;2024-03-07T05:01:01;37.17;;;28.33;;
37937;SDS011;23763;48.130;11.602;2024-03-07T05:03:27;42.60;;;27.88;;
37937;SDS011;23763;48.130;11.602;2024-03-07T05:05:53;38.58;;;28.58;;
37937;SDS011;23763;48.130;11.602;2024-03-07T05:08:18;37.80;;;29.00;;
37937;SDS011;23763;48.130;11.602;2024-03-07T05:10:44;38.00;;;28.20;;
37937;SDS011;23763;48.130;11.602;2024-03-07T05:13:10;39.43;;;28.43;;
37937;SDS011;23763;48.130;11.602;2024-03-07T05:15:35;39.50;;;28.67;;
37937;SDS011;23763;48.130;11.602;2024-03-07T05:18:01;39.10;;;28.60;;
37937;SDS011;23763;48.130;11.602;2024-03-07T05:20:27;36.65;;;28.20;;
37937;SDS011;23763;48.130;11.602;2024-03-07T05:22:53;38.60;;;29.65;;
37937;SDS011;23763;48.130;11.602;2024-03-07T05:25:19;37.60;;;28.37;;
37937;SDS011;23763;48.130;11.602;2024-03-07T05:27:46;39.10;;;29.27;;
37937;SDS011;23763;48.130;11.602;2024-03-07T05:30:15;40.28;;;29.08;;
37937;SDS011;23763;48.130;11.602;2024-03-07T05:32:42;40.30;;;29.83;;
37937;SDS011;23763;48.130;11.602;2024-03-07T05:35:08;39.95;;;28.38;;
37937;SDS011;23763;48.130;11.602;2024-03-07T05:37:34;36.65;;;27.52;;
37937;SDS011;23763;48.130;11.602;2024-03-07T05:40:00;43.00;;;30.93;;
37937;SDS011;23763;48.130;11.602;2024-03-07T05:42:27;36.73;;;29.00;;
37937;SDS011;23763;48.130;11.602;2024-03-07T05:44:54;37.47;;;28.37;;
37937;SDS011;23763;48.130;11.602;2024-03-07T05:47:20;41.27;;;29.57;;
37937;SDS011;23763;48.130;11.602;2024-03-07T05:49:46;40.57;;;30.00;;
37937;SDS011;23763;48.130;11.602;2024-03-07T05:52:12;39.67;;;30.67;;
37937;SDS011;23763;48.130;11.602;2024-03-07T05:54:38;42.80;;;30.10;;
37937;SDS011;23763;48.130;11.602;2024-03-07T05:57:08;43.27;;;29.17;;
37937;SDS011;23763;48.130;11.602;2024-03-07T05:59:35;41.00;;;29.90;;
37937;SDS011;23763;48.130;11.602;2024-03-07T06:02:01;45.73;;;31.53;;
37937;SDS011;23763;48.130;11.602;2024-03-07T06:04:26;40.73;;;31.37;;
37937;SDS011;23763;48.130;11.602;2024-03-07T06:06:52;44.70;;;31.80;;
37937;SDS011;23763;48.130;11.602;2024-03-07T06:09:18;44.13;;;30.53;;
37937;SDS011;23763;48.130;11.602;2024-03-07T06:11:47;44.10;;;31.05;;
37937;SDS011;23763;48.130;11.602;2024-03-07T06:14:13;42.30;;;31.50;;
37937;SDS011;23763;48.130;11.602;2024-03-07T06:16:39;42.03;;;31.67;;
37937;SDS011;23763;48.130;11.602;2024-03-07T06:19:07;45.10;;;31.70;;
37937;SDS011;23763;48.130;11.602;2024-03-07T06:21:34;43.47;;;30.83;;
37937;SDS011;23763;48.130;11.602;2024-03-07T06:24:07;45.97;;;31.33;;
37937;SDS011;23763;48.130;11.602;2024-03-07T06:26:34;43.43;;;30.77;;
37937;SDS011;23763;48.130;11.602;2024-03-07T06:29:24;42.37;;;31.03;;
37937;SDS011;23763;48.130;11.602;2024-03-07T06:31:51;42.65;;;30.90;;
37937;SDS011;23763;48.130;11.602;2024-03-07T06:34:18;42.13;;;30.80;;
37937;SDS011;23763;48.130;11.602;2024-03-07T06:36:44;41.13;;;30.47;;
37937;SDS011;23763;48.130;11.602;2024-03-07T06:39:10;40.07;;;31.53;;
37937;SDS011;23763;48.130;11.602;2024-03-07T06:41:37;41.90;;;30.17;;
37937;SDS011;23763;48.130;11.602;2024-03-07T06:44:03;41.57;;;30.33;;
37937;SDS011;23763;48.130;11.602;2024-03-07T06:46:29;43.43;;;30.70;;
37937;SDS011;23763;48.130;11.602;2024-03-07T06:48:58;40.83;;;30.90;;
37937;SDS011;23763;48.130;11.602;2024-03-07T06:51:24;42.50;;;30.63;;
37937;SDS011;23763;48.130;11.602;2024-03-07T06:53:52;45.72;;;31.50;;
37937;SDS011;23763;48.130;11.602;2024-03-07T06:56:18;40.30;;;29.60;;
37937;SDS011;23763;48.130;11.602;2024-03-07T06:58:43;42.47;;;30.40;;
37937;SDS011;23763;48.130;11.602;2024-03-07T07:01:11;39.95;;;29.33;;
37937;SDS011;23763;48.130;11.602;2024-03-07T07:03:40;45.43;;;31.23;;
37937;SDS011;23763;48.130;11.602;2024-03-07T07:06:08;44.17;;;30.60;;
37937;SDS011;23763;48.130;11.602;2024-03-07T07:08:35;44.50;;;31.02;;
37937;SDS011;23763;48.130;11.602;2024-03-07T07:11:01;40.05;;;29.42;;
37937;SDS011;23763;48.130;11.602;2024-03-07T07:13:28;41.47;;;29.95;;
37937;SDS011;23763;48.130;11.602;2024-03-07T07:15:54;47.72;;;30.75;;
37937;SDS011;23763;48.130;11.602;2024-03-07T07:18:20;39.17;;;30.17;;
37937;SDS011;23763;48.130;11.602;2024-03-07T07:20:48;44.33;;;30.05;;
37937;SDS011;23763;48.130;11.602;2024-03-07T07:23:14;41.67;;;32.03;;
37937;SDS011;23763;48.130;11.602;2024-03-07T07:25:40;42.88;;;29.13;;
37937;SDS011;23763;48.130;11.602;2024-03-07T07:28:06;40.35;;;30.63;;
37937;SDS011;23763;48.130;11.602;2024-03-07T07:30:33;40.25;;;30.05;;
37937;SDS011;23763;48.130;11.602;2024-03-07T07:32:58;43.90;;;30.92;;
37937;SDS011;23763;48.130;11.602;2024-03-07T07:35:24;43.05;;;31.33;;
37937;SDS011;23763;48.130;11.602;2024-03-07T07:37:50;40.97;;;31.30;;
37937;SDS011;23763;48.130;11.602;2024-03-07T07:40:19;43.13;;;31.17;;
37937;SDS011;23763;48.130;11.602;2024-03-07T07:42:47;40.78;;;29.38;;
37937;SDS011;23763;48.130;11.602;2024-03-07T07:45:19;40.58;;;29.08;;
37937;SDS011;23763;48.130;11.602;2024-03-07T07:47:47;49.08;;;35.58;;
37937;SDS011;23763;48.130;11.602;2024-03-07T07:50:15;43.30;;;31.88;;
37937;SDS011;23763;48.130;11.602;2024-03-07T07:52:49;42.17;;;30.77;;
37937;SDS011;23763;48.130;11.602;2024-03-07T07:55:19;43.22;;;30.20;;
37937;SDS011;23763;48.130;11.602;2024-03-07T07:57:48;42.42;;;30.02;;
37937;SDS011;23763;48.130;11.602;2024-03-07T08:00:17;42.65;;;30.23;;
37937;SDS011;23763;48.130;11.602;2024-03-07T08:05:16;40.47;;;29.30;;
37937;SDS011;23763;48.130;11.602;2024-03-07T08:07:44;46.10;;;30.80;;
37937;SDS011;23763;48.130;11.602;2024-03-07T08:10:13;44.53;;;30.70;;
37937;SDS011;23763;48.130;11.602;2024-03-07T08:12:40;43.58;;;30.73;;
37937;SDS011;23763;48.130;11.602;2024-03-07T08:15:08;42.33;;;30.75;;
37937;SDS011;23763;48.130;11.602;2024-03-07T08:17:38;42.15;;;31.38;;
37937;SDS011;23763;48.130;11.602;2024-03-07T08:20:09;41.65;;;31.40;;
37937;SDS011;23763;48.130;11.602;2024-03-07T08:22:37;42.05;;;30.02;;
37937;SDS011;23763;48.130;11.602;2024-03-07T08:25:05;41.00;;;29.40;;
37937;SDS011;23763;48.130;11.602;2024-03-07T08:27:35;45.90;;;31.42;;
37937;SDS011;23763;48.130;11.602;2024-03-07T08:30:06;42.63;;;30.20;;
37937;SDS011;23763;48.130;11.602;2024-03-07T08:32:38;44.13;;;30.75;;
37937;SDS011;23763;48.130;11.602;2024-03-07T08:35:09;48.42;;;31.38;;
37937;SDS011;23763;48.130;11.602;2024-03-07T08:37:36;39.75;;;29.13;;
37937;SDS011;23763;48.130;11.602;2024-03-07T08:40:06;36.50;;;27.67;;
37937;SDS011;23763;48.130;11.602;2024-03-07T08:42:35;43.15;;;30.65;;
37937;SDS011;23763;48.130;11.602;2024-03-07T08:45:04;42.42;;;28.98;;
37937;SDS011;23763;48.130;11.602;2024-03-07T08:47:31;39.80;;;29.80;;
37937;SDS011;23763;48.130;11.602;2024-03-07T08:49:57;42.05;;;28.75;;
37937;SDS011;23763;48.130;11.602;2024-03-07T08:52:23;39.53;;;29.40;;
37937;SDS011;23763;48.130;11.602;2024-03-07T08:54:49;40.70;;;28.95;;
37937;SDS011;23763;48.130;11.602;2024-03-07T08:57:15;42.42;;;30.48;;
37937;SDS011;23763;48.130;11.602;2024-03-07T08:59:43;49.10;;;32.58;;
37937;SDS011;23763;48.130;11.602;2024-03-07T09:02:11;44.50;;;31.05;;
37937;SDS011;23763;48.130;11.602;2024-03-07T09:04:38;43.05;;;29.95;;
37937;SDS011;23763;48.130;11.602;2024-03-07T09:07:04;39.92;;;29.25;;
37937;SDS011;23763;48.130;11.602;2024-03-07T09:09:31;43.22;;;31.92;;
37937;SDS011;23763;48.130;11.602;2024-03-07T09:12:00;37.58;;;28.58;;
37937;SDS011;23763;48.130;11.602;2024-03-07T09:14:29;35.47;;;26.80;;
37937;SDS011;23763;48.130;11.602;2024-03-07T09:16:55;38.08;;;28.02;;
37937;SDS011;23763;48.130;11.602;2024-03-07T09:19:21;37.00;;;28.10;;
37937;SDS011;23763;48.130;11.602;2024-03-07T09:21:51;39.53;;;27.92;;
37937;SDS011;23763;48.130;11.602;2024-03-07T09:24:18;37.85;;;26.88;;
37937;SDS011;23763;48.130;11.602;2024-03-07T09:26:48;38.05;;;28.35;;
37937;SDS011;23763;48.130;11.602;2024-03-07T09:29:14;41.15;;;28.95;;
37937;SDS011;23763;48.130;11.602;2024-03-07T09:31:40;40.78;;;30.10;;
37937;SDS011;23763;48.130;11.602;2024-03-07T09:34:06;39.75;;;28.52;;
37937;SDS011;23763;48.130;11.602;2024-03-07T09:36:33;38.13;;;28.92;;
37937;SDS011;23763;48.130;11.602;2024-03-07T09:38:59;35.28;;;27.42;;
37937;SDS011;23763;48.130;11.602;2024-03-07T09:41:26;35.03;;;27.42;;
37937;SDS011;23763;48.130;11.602;2024-03-07T09:43:52;36.70;;;28.00;;
37937;SDS011;23763;48.130;11.602;2024-03-07T09:46:21;39.55;;;28.45;;
37937;SDS011;23763;48.130;11.602;2024-03-07T09:48:48;37.97;;;27.85;;
37937;SDS011;23763;48.130;11.602;2024-03-07T09:51:16;37.08;;;28.17;;
37937;SDS011;23763;48.130;11.602;2024-03-07T09:53:44;37.10;;;27.52;;
37937;SDS011;23763;48.130;11.602;2024-03-07T09:56:10;40.35;;;28.95;;
37937;SDS011;23763;48.130;11.602;2024-03-07T09:58:38;38.65;;;28.77;;
37937;SDS011;23763;48.130;11.602;2024-03-07T10:01:05;38.88;;;27.58;;
37937;SDS011;23763;48.130;11.602;2024-03-07T10:03:35;36.72;;;27.95;;
37937;SDS011;23763;48.130;11.602;2024-03-07T10:06:01;37.85;;;27.88;;
37937;SDS011;23763;48.130;11.602;2024-03-07T10:08:28;38.00;;;27.60;;
37937;SDS011;23763;48.130;11.602;2024-03-07T10:10:55;49.53;;;33.30;;
37937;SDS011;23763;48.130;11.602;2024-03-07T10:13:22;34.22;;;27.65;;
37937;SDS011;23763;48.130;11.602;2024-03-07T10:15:50;37.03;;;28.25;;
37937;SDS011;23763;48.130;11.602;2024-03-07T10:18:18;37.85;;;28.20;;
37937;SDS011;23763;48.130;11.602;2024-03-07T10:20:47;37.42;;;28.42;;
37937;SDS011;23763;48.130;11.602;2024-03-07T10:23:18;39.03;;;27.95;;
37937;SDS011;23763;48.130;11.602;2024-03-07T10:25:46;34.58;;;27.58;;
37937;SDS011;23763;48.130;11.602;2024-03-07T10:28:12;34.80;;;27.30;;
37937;SDS011;23763;48.130;11.602;2024-03-07T10:30:40;33.10;;;26.08;;
37937;SDS011;23763;48.130;11.602;2024-03-07T10:33:06;36.25;;;27.17;;
37937;SDS011;23763;48.130;11.602;2024-03-07T10:35:32;41.88;;;30.27;;
37937;SDS011;23763;48.130;11.602;2024-03-07T10:37:58;39.58;;;26.23;;
37937;SDS011;23763;48.130;11.602;2024-03-07T10:40:25;38.97;;;27.92;;
37937;SDS011;23763;48.130;11.602;2024-03-07T10:42:54;35.63;;;27.30;;
37937;SDS011;23763;48.130;11.602;2024-03-07T10:45:22;37.33;;;27.33;;
37937;SDS011;23763;48.130;11.602;2024-03-07T10:47:55;37.78;;;27.48;;
37937;SDS011;23763;48.130;11.602;2024-03-07T10:50:38;34.95;;;26.00;;
37937;SDS011;23763;48.130;11.602;2024-03-07T11:01:21;33.72;;;25.65;;
37937;SDS011;23763;48.130;11.602;2024-03-07T11:03:49;41.85;;;25.05;;
37937;SDS011;23763;48.130;11.602;2024-03-07T11:06:17;35.25;;;25.30;;
37937;SDS011;23763;48.130;11.602;2024-03-07T11:08:43;33.42;;;25.58;;
37937;SDS011;23763;48.130;11.602;2024-03-07T11:11:11;33.97;;;24.17;;
37937;SDS011;23763;48.130;11.602;2024-03-07T11:13:37;35.65;;;24.25;;
37937;SDS011;23763;48.130;11.602;2024-03-07T11:16:03;35.47;;;23.65;;
37937;SDS011;23763;48.130;11.602;2024-03-07T11:18:31;32.47;;;24.20;;
37937;SDS011;23763;48.130;11.602;2024-03-07T11:20:57;28.88;;;22.73;;
37937;SDS011;23763;48.130;11.602;2024-03-07T11:23:30;35.03;;;26.52;;
37937;SDS011;23763;48.130;11.602;2024-03-07T11:26:05;34.22;;;25.10;;
37937;SDS011;23763;48.130;11.602;2024-03-07T11:28:35;35.38;;;26.40;;
37937;SDS011;23763;48.130;11.602;2024-03-07T11:36:42;37.40;;;26.92;;
37937;SDS011;23763;48.130;11.602;2024-03-07T11:39:38;30.95;;;24.77;;
37937;SDS011;23763;48.130;11.602;2024-03-07T11:41:56;28.48;;;23.33;;
37937;SDS011;23763;48.130;11.602;2024-03-07T11:44:22;32.78;;;24.48;;
37937;SDS011;23763;48.130;11.602;2024-03-07T11:46:48;37.00;;;27.45;;
37937;SDS011;23763;48.130;11.602;2024-03-07T11:49:14;36.90;;;26.77;;
37937;SDS011;23763;48.130;11.602;2024-03-07T11:51:40;34.83;;;24.88;;
37937;SDS011;23763;48.130;11.602;2024-03-07T11:54:06;38.78;;;26.17;;
37937;SDS011;23763;48.130;11.602;2024-03-07T11:56:32;30.75;;;23.30;;
37937;SDS011;23763;48.130;11.602;2024-03-07T11:58:58;30.10;;;23.23;;
37937;SDS011;23763;48.130;11.602;2024-03-07T12:01:27;33.45;;;23.92;;
37937;SDS011;23763;48.130;11.602;2024-03-07T12:03:56;32.60;;;24.88;;
37937;SDS011;23763;48.130;11.602;2024-03-07T12:06:22;32.25;;;23.70;;
37937;SDS011;23763;48.130;11.602;2024-03-07T12:08:48;27.98;;;23.63;;
37937;SDS011;23763;48.130;11.602;2024-03-07T12:11:14;30.23;;;24.08;;
37937;SDS011;23763;48.130;11.602;2024-03-07T12:13:41;39.40;;;25.70;;
37937;SDS011;23763;48.130;11.602;2024-03-07T12:16:07;34.35;;;24.15;;
37937;SDS011;23763;48.130;11.602;2024-03-07T12:18:34;32.78;;;25.58;;
37937;SDS011;23763;48.130;11.602;2024-03-07T12:21:04;36.53;;;25.35;;
37937;SDS011;23763;48.130;11.602;2024-03-07T12:23:33;39.25;;;25.55;;
37937;SDS011;23763;48.130;11.602;2024-03-07T12:26:01;35.72;;;25.33;;
37937;SDS011;23763;48.130;11.602;2024-03-07T12:28:28;36.03;;;25.35;;
37937;SDS011;23763;48.130;11.602;2024-03-07T12:30:58;34.22;;;24.60;;
37937;SDS011;23763;48.130;11.602;2024-03-07T12:33:27;34.03;;;24.08;;
37937;SDS011;23763;48.130;11.602;2024-03-07T12:35:54;57.30;;;26.42;;
37937;SDS011;23763;48.130;11.602;2024-03-07T12:38:30;37.22;;;24.40;;
37937;SDS011;23763;48.130;11.602;2024-03-07T12:41:10;33.80;;;23.80;;
37937;SDS011;23763;48.130;11.602;2024-03-07T12:43:40;45.03;;;25.35;;
37937;SDS011;23763;48.130;11.602;2024-03-07T12:46:07;38.25;;;26.50;;
37937;SDS011;23763;48.130;11.602;2024-03-07T12:48:37;34.45;;;25.00;;
37937;SDS011;23763;48.130;11.602;2024-03-07T12:51:06;32.63;;;23.42;;
37937;SDS011;23763;48.130;11.602;2024-03-07T12:53:32;36.83;;;24.55;;
37937;SDS011;23763;48.130;11.602;2024-03-07T12:56:00;30.75;;;24.40;;
37937;SDS011;23763;48.130;11.602;2024-03-07T12:58:28;31.65;;;24.45;;
37937;SDS011;23763;48.130;11.602;2024-03-07T13:00:55;33.25;;;24.27;;
37937;SDS011;23763;48.130;11.602;2024-03-07T13:03:22;32.15;;;23.45;;
37937;SDS011;23763;48.130;11.602;2024-03-07T13:05:51;42.78;;;25.30;;
37937;SDS011;23763;48.130;11.602;2024-03-07T13:08:17;35.50;;;24.60;;
37937;SDS011;23763;48.130;11.602;2024-03-07T13:10:44;34.28;;;24.30;;
37937;SDS011;23763;48.130;11.602;2024-03-07T13:13:10;29.90;;;23.40;;
37937;SDS011;23763;48.130;11.602;2024-03-07T13:15:40;31.50;;;24.50;;
37937;SDS011;23763;48.130;11.602;2024-03-07T13:18:08;36.70;;;24.75;;
37937;SDS011;23763;48.130;11.602;2024-03-07T13:20:35;30.20;;;23.95;;
37937;SDS011;23763;48.130;11.602;2024-03-07T13:23:03;34.60;;;24.08;;
37937;SDS011;23763;48.130;11.602;2024-03-07T13:25:31;33.10;;;24.23;;
37937;SDS011;23763;48.130;11.602;2024-03-07T13:30:32;34.72;;;24.73;;
37937;SDS011;23763;48.130;11.602;2024-03-07T13:33:01;29.02;;;23.60;;
37937;SDS011;23763;48.130;11.602;2024-03-07T13:35:28;40.13;;;25.88;;
37937;SDS011;23763;48.130;11.602;2024-03-07T13:37:55;35.45;;;27.88;;
37937;SDS011;23763;48.130;11.602;2024-03-07T13:40:22;33.58;;;24.98;;
37937;SDS011;23763;48.130;11.602;2024-03-07T13:42:58;34.28;;;24.55;;
37937;SDS011;23763;48.130;11.602;2024-03-07T13:45:28;32.55;;;23.92;;
37937;SDS011;23763;48.130;11.602;2024-03-07T13:48:02;31.50;;;22.27;;
37937;SDS011;23763;48.130;11.602;2024-03-07T13:50:30;35.03;;;23.92;;
37937;SDS011;23763;48.130;11.602;2024-03-07T13:52:57;30.50;;;22.38;;
37937;SDS011;23763;48.130;11.602;2024-03-07T13:55:33;29.23;;;22.85;;
37937;SDS011;23763;48.130;11.602;2024-03-07T13:58:03;34.85;;;23.05;;
37937;SDS011;23763;48.130;11.602;2024-03-07T14:21:53;30.65;;;23.58;;
37937;SDS011;23763;48.130;11.602;2024-03-07T14:31:57;35.60;;;25.58;;
37937;SDS011;23763;48.130;11.602;2024-03-07T14:34:33;40.53;;;25.80;;
37937;SDS011;23763;48.130;11.602;2024-03-07T14:37:17;34.70;;;24.88;;
37937;SDS011;23763;48.130;11.602;2024-03-07T14:39:43;34.30;;;24.27;;
37937;SDS011;23763;48.130;11.602;2024-03-07T14:42:13;34.28;;;25.20;;
37937;SDS011;23763;48.130;11.602;2024-03-07T14:44:42;34.05;;;23.52;;
37937;SDS011;23763;48.130;11.602;2024-03-07T14:47:08;37.22;;;23.92;;
37937;SDS011;23763;48.130;11.602;2024-03-07T14:49:39;35.88;;;25.33;;
37937;SDS011;23763;48.130;11.602;2024-03-07T14:52:06;32.58;;;23.77;;
37937;SDS011;23763;48.130;11.602;2024-03-07T14:54:38;30.65;;;23.80;;
37937;SDS011;23763;48.130;11.602;2024-03-07T14:57:05;31.90;;;23.58;;